sensor_id;sensor_type;location;lat;lon;timestamp;temperature;humidity
13798;DHT22;6970;51.340;3.240;2023-02-28T00:01:25;5.10;99.90
13798;DHT22;6970;51.340;3.240;2023-02-28T00:03:52;5.10;99.90
13798;DHT22;6970;51.340;3.240;2023-02-28T00:06:20;5.10;99.90
13798;DHT22;6970;51.340;3.240;2023-02-28T00:08:47;5.10;99.90
13798;DHT22;6970;51.340;3.240;2023-02-28T00:11:15;5.10;99.90
13798;DHT22;6970;51.340;3.240;2023-02-28T00:13:44;5.10;99.90
13798;DHT22;6970;51.340;3.240;2023-02-28T00:16:20;5.10;99.90
13798;DHT22;6970;51.340;3.240;2023-02-28T00:18:48;5.10;99.90
13798;DHT22;6970;51.340;3.240;2023-02-28T00:21:16;5.10;99.90
13798;DHT22;6970;51.340;3.240;2023-02-28T00:23:44;5.10;99.90
13798;DHT22;6970;51.340;3.240;2023-02-28T00:26:11;5.10;99.90
13798;DHT22;6970;51.340;3.240;2023-02-28T00:28:38;5.10;99.90
13798;DHT22;6970;51.340;3.240;2023-02-28T00:31:05;5.10;99.90
13798;DHT22;6970;51.340;3.240;2023-02-28T00:33:32;5.10;99.90
13798;DHT22;6970;51.340;3.240;2023-02-28T00:36:09;5.10;99.90
13798;DHT22;6970;51.340;3.240;2023-02-28T00:38:37;5.00;99.90
13798;DHT22;6970;51.340;3.240;2023-02-28T00:41:04;5.00;99.90
13798;DHT22;6970;51.340;3.240;2023-02-28T00:43:33;5.00;99.90
13798;DHT22;6970;51.340;3.240;2023-02-28T00:46:02;5.00;99.90
13798;DHT22;6970;51.340;3.240;2023-02-28T00:48:29;5.00;99.90
13798;DHT22;6970;51.340;3.240;2023-02-28T00:50:56;4.90;99.90
13798;DHT22;6970;51.340;3.240;2023-02-28T00:53:23;4.90;99.90
13798;DHT22;6970;51.340;3.240;2023-02-28T00:55:50;4.90;99.90
13798;DHT22;6970;51.340;3.240;2023-02-28T00:58:18;4.90;99.90
13798;DHT22;6970;51.340;3.240;2023-02-28T01:00:45;4.80;99.90
13798;DHT22;6970;51.340;3.240;2023-02-28T01:03:19;4.80;99.90
13798;DHT22;6970;51.340;3.240;2023-02-28T01:05:47;4.80;99.90
13798;DHT22;6970;51.340;3.240;2023-02-28T01:08:14;4.70;99.90
13798;DHT22;6970;51.340;3.240;2023-02-28T01:10:41;4.70;99.90
13798;DHT22;6970;51.340;3.240;2023-02-28T01:13:09;4.70;99.90
13798;DHT22;6970;51.340;3.240;2023-02-28T01:15:35;4.70;99.90
13798;DHT22;6970;51.340;3.240;2023-02-28T01:18:03;4.70;99.90
13798;DHT22;6970;51.340;3.240;2023-02-28T01:20:29;4.70;99.90
13798;DHT22;6970;51.340;3.240;2023-02-28T01:22:56;4.70;99.90
13798;DHT22;6970;51.340;3.240;2023-02-28T01:25:23;4.60;99.90
13798;DHT22;6970;51.340;3.240;2023-02-28T01:27:51;4.60;99.90
13798;DHT22;6970;51.340;3.240;2023-02-28T01:30:18;4.60;99.90
13798;DHT22;6970;51.340;3.240;2023-02-28T01:32:45;4.60;99.90
13798;DHT22;6970;51.340;3.240;2023-02-28T01:35:13;4.60;99.90
13798;DHT22;6970;51.340;3.240;2023-02-28T01:37:40;4.60;99.90
13798;DHT22;6970;51.340;3.240;2023-02-28T01:40:07;4.60;99.90
13798;DHT22;6970;51.340;3.240;2023-02-28T01:42:34;4.60;99.90
13798;DHT22;6970;51.340;3.240;2023-02-28T01:45:04;4.50;99.90
13798;DHT22;6970;51.340;3.240;2023-02-28T01:47:36;4.50;99.90
13798;DHT22;6970;51.340;3.240;2023-02-28T01:50:09;4.50;99.90
13798;DHT22;6970;51.340;3.240;2023-02-28T01:52:38;4.50;99.90
13798;DHT22;6970;51.340;3.240;2023-02-28T01:55:06;4.50;99.90
13798;DHT22;6970;51.340;3.240;2023-02-28T01:57:42;4.40;99.90
13798;DHT22;6970;51.340;3.240;2023-02-28T02:00:14;4.40;99.90
13798;DHT22;6970;51.340;3.240;2023-02-28T02:02:52;4.40;99.90
13798;DHT22;6970;51.340;3.240;2023-02-28T02:05:29;4.40;99.90
13798;DHT22;6970;51.340;3.240;2023-02-28T02:08:03;4.40;99.90
13798;DHT22;6970;51.340;3.240;2023-02-28T02:10:39;4.40;99.90
13798;DHT22;6970;51.340;3.240;2023-02-28T02:13:17;4.40;99.90
13798;DHT22;6970;51.340;3.240;2023-02-28T02:18:48;4.40;99.90
13798;DHT22;6970;51.340;3.240;2023-02-28T02:26:58;4.50;99.90
13798;DHT22;6970;51.340;3.240;2023-02-28T02:35:17;4.60;99.90
13798;DHT22;6970;51.340;3.240;2023-02-28T02:40:51;4.70;99.90
13798;DHT22;6970;51.340;3.240;2023-02-28T02:43:25;4.70;99.90
13798;DHT22;6970;51.340;3.240;2023-02-28T02:45:56;4.80;99.90
13798;DHT22;6970;51.340;3.240;2023-02-28T02:48:30;4.70;99.90
13798;DHT22;6970;51.340;3.240;2023-02-28T02:51:01;4.80;99.90
13798;DHT22;6970;51.340;3.240;2023-02-28T02:53:37;4.80;99.90
13798;DHT22;6970;51.340;3.240;2023-02-28T02:56:05;4.80;99.90
13798;DHT22;6970;51.340;3.240;2023-02-28T02:58:38;4.80;99.90
13798;DHT22;6970;51.340;3.240;2023-02-28T03:01:19;4.90;99.90
13798;DHT22;6970;51.340;3.240;2023-02-28T03:04:04;4.90;99.90
13798;DHT22;6970;51.340;3.240;2023-02-28T03:06:32;4.90;99.90
13798;DHT22;6970;51.340;3.240;2023-02-28T03:09:00;4.90;99.90
13798;DHT22;6970;51.340;3.240;2023-02-28T03:11:27;4.90;99.90
13798;DHT22;6970;51.340;3.240;2023-02-28T03:16:33;4.90;99.90
13798;DHT22;6970;51.340;3.240;2023-02-28T03:24:39;4.90;99.90
13798;DHT22;6970;51.340;3.240;2023-02-28T03:27:15;5.00;99.90
13798;DHT22;6970;51.340;3.240;2023-02-28T03:29:47;5.00;99.90
13798;DHT22;6970;51.340;3.240;2023-02-28T03:35:32;5.00;99.90
13798;DHT22;6970;51.340;3.240;2023-02-28T03:38:05;5.10;99.90
13798;DHT22;6970;51.340;3.240;2023-02-28T03:40:35;5.10;99.90
13798;DHT22;6970;51.340;3.240;2023-02-28T03:43:09;5.00;99.90
13798;DHT22;6970;51.340;3.240;2023-02-28T03:45:38;5.10;99.90
13798;DHT22;6970;51.340;3.240;2023-02-28T03:48:16;5.10;99.90
13798;DHT22;6970;51.340;3.240;2023-02-28T03:50:46;5.10;99.90
13798;DHT22;6970;51.340;3.240;2023-02-28T03:53:16;5.10;99.90
13798;DHT22;6970;51.340;3.240;2023-02-28T03:55:49;5.10;99.90
13798;DHT22;6970;51.340;3.240;2023-02-28T03:58:31;5.10;99.90
13798;DHT22;6970;51.340;3.240;2023-02-28T04:01:12;5.20;99.90
13798;DHT22;6970;51.340;3.240;2023-02-28T04:03:41;5.20;99.90
13798;DHT22;6970;51.340;3.240;2023-02-28T04:06:14;5.20;99.90
13798;DHT22;6970;51.340;3.240;2023-02-28T04:08:42;5.20;99.90
13798;DHT22;6970;51.340;3.240;2023-02-28T04:11:23;5.20;99.90
13798;DHT22;6970;51.340;3.240;2023-02-28T04:13:50;5.20;99.90
13798;DHT22;6970;51.340;3.240;2023-02-28T04:16:18;5.30;99.90
13798;DHT22;6970;51.340;3.240;2023-02-28T04:19:04;5.20;99.90
13798;DHT22;6970;51.340;3.240;2023-02-28T04:21:49;5.30;99.90
13798;DHT22;6970;51.340;3.240;2023-02-28T04:24:22;5.30;99.90
13798;DHT22;6970;51.340;3.240;2023-02-28T04:26:52;5.30;99.90
13798;DHT22;6970;51.340;3.240;2023-02-28T04:29:27;5.30;99.90
13798;DHT22;6970;51.340;3.240;2023-02-28T04:31:55;5.30;99.90
13798;DHT22;6970;51.340;3.240;2023-02-28T04:34:26;5.30;99.90
13798;DHT22;6970;51.340;3.240;2023-02-28T04:36:53;5.30;99.90
13798;DHT22;6970;51.340;3.240;2023-02-28T04:39:37;5.30;99.90
13798;DHT22;6970;51.340;3.240;2023-02-28T04:42:05;5.20;99.90
13798;DHT22;6970;51.340;3.240;2023-02-28T04:44:31;5.30;99.90
13798;DHT22;6970;51.340;3.240;2023-02-28T04:46:58;5.30;99.90
13798;DHT22;6970;51.340;3.240;2023-02-28T04:49:26;5.30;99.90
13798;DHT22;6970;51.340;3.240;2023-02-28T04:51:53;5.30;99.90
13798;DHT22;6970;51.340;3.240;2023-02-28T04:54:20;5.30;99.90
13798;DHT22;6970;51.340;3.240;2023-02-28T04:56:47;5.30;99.90
13798;DHT22;6970;51.340;3.240;2023-02-28T04:59:17;5.30;99.90
13798;DHT22;6970;51.340;3.240;2023-02-28T05:01:48;5.30;99.90
13798;DHT22;6970;51.340;3.240;2023-02-28T05:04:16;5.30;99.90
13798;DHT22;6970;51.340;3.240;2023-02-28T05:06:44;5.30;99.90
13798;DHT22;6970;51.340;3.240;2023-02-28T05:09:11;5.30;99.90
13798;DHT22;6970;51.340;3.240;2023-02-28T05:11:39;5.30;99.90
13798;DHT22;6970;51.340;3.240;2023-02-28T05:14:11;5.30;99.90
13798;DHT22;6970;51.340;3.240;2023-02-28T05:16:39;5.30;99.90
13798;DHT22;6970;51.340;3.240;2023-02-28T05:19:06;5.30;99.90
13798;DHT22;6970;51.340;3.240;2023-02-28T05:21:36;5.30;99.90
13798;DHT22;6970;51.340;3.240;2023-02-28T05:24:09;5.30;99.90
13798;DHT22;6970;51.340;3.240;2023-02-28T05:26:39;5.30;99.90
13798;DHT22;6970;51.340;3.240;2023-02-28T05:29:06;5.30;99.90
13798;DHT22;6970;51.340;3.240;2023-02-28T05:31:33;5.30;99.90
13798;DHT22;6970;51.340;3.240;2023-02-28T05:34:01;5.30;99.90
13798;DHT22;6970;51.340;3.240;2023-02-28T05:36:28;5.30;99.90
13798;DHT22;6970;51.340;3.240;2023-02-28T05:38:55;5.30;99.90
13798;DHT22;6970;51.340;3.240;2023-02-28T05:41:22;5.30;99.90
13798;DHT22;6970;51.340;3.240;2023-02-28T05:43:49;5.30;99.90
13798;DHT22;6970;51.340;3.240;2023-02-28T05:46:17;5.30;99.90
13798;DHT22;6970;51.340;3.240;2023-02-28T05:48:46;5.30;99.90
13798;DHT22;6970;51.340;3.240;2023-02-28T05:51:14;5.30;99.90
13798;DHT22;6970;51.340;3.240;2023-02-28T05:53:41;5.30;99.90
13798;DHT22;6970;51.340;3.240;2023-02-28T05:56:08;5.20;99.90
13798;DHT22;6970;51.340;3.240;2023-02-28T05:58:35;5.30;99.90
13798;DHT22;6970;51.340;3.240;2023-02-28T06:01:21;5.30;99.90
13798;DHT22;6970;51.340;3.240;2023-02-28T06:03:49;5.20;99.90
13798;DHT22;6970;51.340;3.240;2023-02-28T06:06:16;5.20;99.90
13798;DHT22;6970;51.340;3.240;2023-02-28T06:08:43;5.20;99.90
13798;DHT22;6970;51.340;3.240;2023-02-28T06:11:11;5.20;99.90
13798;DHT22;6970;51.340;3.240;2023-02-28T06:13:38;5.20;99.90
13798;DHT22;6970;51.340;3.240;2023-02-28T06:16:07;5.10;99.90
13798;DHT22;6970;51.340;3.240;2023-02-28T06:18:35;5.10;99.90
13798;DHT22;6970;51.340;3.240;2023-02-28T06:21:03;5.10;99.90
13798;DHT22;6970;51.340;3.240;2023-02-28T06:23:31;5.10;99.90
13798;DHT22;6970;51.340;3.240;2023-02-28T06:25:58;5.00;99.90
13798;DHT22;6970;51.340;3.240;2023-02-28T06:28:25;5.10;99.90
13798;DHT22;6970;51.340;3.240;2023-02-28T06:30:52;5.10;99.90
13798;DHT22;6970;51.340;3.240;2023-02-28T06:33:19;5.10;99.90
13798;DHT22;6970;51.340;3.240;2023-02-28T06:35:49;5.10;99.90
13798;DHT22;6970;51.340;3.240;2023-02-28T06:38:16;5.10;99.90
13798;DHT22;6970;51.340;3.240;2023-02-28T06:40:51;5.00;99.90
13798;DHT22;6970;51.340;3.240;2023-02-28T06:43:19;5.10;99.90
13798;DHT22;6970;51.340;3.240;2023-02-28T06:45:46;5.00;99.90
13798;DHT22;6970;51.340;3.240;2023-02-28T06:48:13;5.00;99.90
13798;DHT22;6970;51.340;3.240;2023-02-28T06:50:40;5.00;99.90
13798;DHT22;6970;51.340;3.240;2023-02-28T06:53:07;5.00;99.90
13798;DHT22;6970;51.340;3.240;2023-02-28T06:55:34;5.00;99.90
13798;DHT22;6970;51.340;3.240;2023-02-28T06:58:03;5.10;99.90
13798;DHT22;6970;51.340;3.240;2023-02-28T07:00:45;5.00;99.90
13798;DHT22;6970;51.340;3.240;2023-02-28T07:03:12;5.00;99.90
13798;DHT22;6970;51.340;3.240;2023-02-28T07:05:39;5.00;99.90
13798;DHT22;6970;51.340;3.240;2023-02-28T07:08:08;5.00;99.90
13798;DHT22;6970;51.340;3.240;2023-02-28T07:10:37;5.00;99.90
13798;DHT22;6970;51.340;3.240;2023-02-28T07:13:06;5.00;99.90
13798;DHT22;6970;51.340;3.240;2023-02-28T07:15:34;5.00;99.90
13798;DHT22;6970;51.340;3.240;2023-02-28T07:18:05;5.00;99.90
13798;DHT22;6970;51.340;3.240;2023-02-28T07:20:32;5.00;99.90
13798;DHT22;6970;51.340;3.240;2023-02-28T07:22:59;4.90;99.90
13798;DHT22;6970;51.340;3.240;2023-02-28T07:25:27;4.90;99.90
13798;DHT22;6970;51.340;3.240;2023-02-28T07:27:55;4.90;99.90
13798;DHT22;6970;51.340;3.240;2023-02-28T07:30:22;4.80;99.90
13798;DHT22;6970;51.340;3.240;2023-02-28T07:32:49;4.80;99.90
13798;DHT22;6970;51.340;3.240;2023-02-28T07:35:16;4.70;99.90
13798;DHT22;6970;51.340;3.240;2023-02-28T07:37:43;4.70;99.90
13798;DHT22;6970;51.340;3.240;2023-02-28T07:40:11;4.70;99.90
13798;DHT22;6970;51.340;3.240;2023-02-28T07:42:40;4.80;99.90
13798;DHT22;6970;51.340;3.240;2023-02-28T07:45:08;4.80;99.90
13798;DHT22;6970;51.340;3.240;2023-02-28T07:47:38;4.80;99.90
13798;DHT22;6970;51.340;3.240;2023-02-28T07:50:08;4.70;99.90
13798;DHT22;6970;51.340;3.240;2023-02-28T07:52:37;4.70;99.90
13798;DHT22;6970;51.340;3.240;2023-02-28T07:55:06;4.70;99.90
13798;DHT22;6970;51.340;3.240;2023-02-28T07:57:33;4.70;99.90
13798;DHT22;6970;51.340;3.240;2023-02-28T08:00:01;4.70;99.90
13798;DHT22;6970;51.340;3.240;2023-02-28T08:02:28;4.80;99.90
13798;DHT22;6970;51.340;3.240;2023-02-28T08:04:55;4.70;99.90
13798;DHT22;6970;51.340;3.240;2023-02-28T08:07:22;4.70;99.90
13798;DHT22;6970;51.340;3.240;2023-02-28T08:09:49;4.70;99.90
13798;DHT22;6970;51.340;3.240;2023-02-28T08:12:16;4.70;99.90
13798;DHT22;6970;51.340;3.240;2023-02-28T08:14:43;4.60;99.90
13798;DHT22;6970;51.340;3.240;2023-02-28T08:17:11;4.60;99.90
13798;DHT22;6970;51.340;3.240;2023-02-28T08:19:38;4.40;99.90
13798;DHT22;6970;51.340;3.240;2023-02-28T08:22:06;4.30;99.90
13798;DHT22;6970;51.340;3.240;2023-02-28T08:24:34;4.30;99.90
13798;DHT22;6970;51.340;3.240;2023-02-28T08:27:01;4.20;99.90
13798;DHT22;6970;51.340;3.240;2023-02-28T08:29:28;4.20;99.90
13798;DHT22;6970;51.340;3.240;2023-02-28T08:31:56;4.10;99.90
13798;DHT22;6970;51.340;3.240;2023-02-28T08:34:25;4.10;99.90
13798;DHT22;6970;51.340;3.240;2023-02-28T08:36:52;4.00;99.90
13798;DHT22;6970;51.340;3.240;2023-02-28T08:39:19;3.90;99.90
13798;DHT22;6970;51.340;3.240;2023-02-28T08:41:46;3.90;99.90
13798;DHT22;6970;51.340;3.240;2023-02-28T08:44:24;3.80;99.90
13798;DHT22;6970;51.340;3.240;2023-02-28T08:46:51;3.80;99.90
13798;DHT22;6970;51.340;3.240;2023-02-28T08:49:18;3.70;99.90
13798;DHT22;6970;51.340;3.240;2023-02-28T08:51:45;3.70;99.90
13798;DHT22;6970;51.340;3.240;2023-02-28T08:54:12;3.70;99.90
13798;DHT22;6970;51.340;3.240;2023-02-28T08:56:39;3.70;99.90
13798;DHT22;6970;51.340;3.240;2023-02-28T08:59:08;3.60;99.90
13798;DHT22;6970;51.340;3.240;2023-02-28T09:01:35;3.60;99.90
13798;DHT22;6970;51.340;3.240;2023-02-28T09:04:03;3.50;99.90
13798;DHT22;6970;51.340;3.240;2023-02-28T09:06:30;3.40;99.90
13798;DHT22;6970;51.340;3.240;2023-02-28T09:08:59;3.30;99.90
13798;DHT22;6970;51.340;3.240;2023-02-28T09:11:26;3.20;99.90
13798;DHT22;6970;51.340;3.240;2023-02-28T09:13:54;3.20;99.90
13798;DHT22;6970;51.340;3.240;2023-02-28T09:16:22;3.20;99.90
13798;DHT22;6970;51.340;3.240;2023-02-28T09:18:49;3.10;99.90
13798;DHT22;6970;51.340;3.240;2023-02-28T09:21:17;3.20;99.90
13798;DHT22;6970;51.340;3.240;2023-02-28T09:23:46;3.20;99.90
13798;DHT22;6970;51.340;3.240;2023-02-28T09:26:16;3.20;99.90
13798;DHT22;6970;51.340;3.240;2023-02-28T09:28:44;3.20;99.90
13798;DHT22;6970;51.340;3.240;2023-02-28T09:31:19;3.20;99.90
13798;DHT22;6970;51.340;3.240;2023-02-28T09:33:49;3.20;99.90
13798;DHT22;6970;51.340;3.240;2023-02-28T09:36:17;3.20;99.90
13798;DHT22;6970;51.340;3.240;2023-02-28T09:38:44;3.10;99.90
13798;DHT22;6970;51.340;3.240;2023-02-28T09:41:23;3.10;99.90
13798;DHT22;6970;51.340;3.240;2023-02-28T09:43:57;3.10;99.90
13798;DHT22;6970;51.340;3.240;2023-02-28T09:46:38;3.10;99.90
13798;DHT22;6970;51.340;3.240;2023-02-28T09:49:12;3.10;99.90
13798;DHT22;6970;51.340;3.240;2023-02-28T09:51:57;3.00;99.90
13798;DHT22;6970;51.340;3.240;2023-02-28T09:54:29;2.90;99.90
13798;DHT22;6970;51.340;3.240;2023-02-28T09:57:13;2.90;99.90
13798;DHT22;6970;51.340;3.240;2023-02-28T10:05:23;3.00;99.90
13798;DHT22;6970;51.340;3.240;2023-02-28T10:08:05;3.00;99.90
13798;DHT22;6970;51.340;3.240;2023-02-28T10:10:41;3.00;99.90
13798;DHT22;6970;51.340;3.240;2023-02-28T10:13:36;3.00;99.90
13798;DHT22;6970;51.340;3.240;2023-02-28T10:18:54;3.20;99.90
13798;DHT22;6970;51.340;3.240;2023-02-28T10:21:26;3.20;99.90
13798;DHT22;6970;51.340;3.240;2023-02-28T10:24:02;3.20;99.90
13798;DHT22;6970;51.340;3.240;2023-02-28T10:26:31;3.30;99.90
13798;DHT22;6970;51.340;3.240;2023-02-28T10:28:59;3.30;99.90
13798;DHT22;6970;51.340;3.240;2023-02-28T10:31:26;3.30;99.90
13798;DHT22;6970;51.340;3.240;2023-02-28T10:33:53;3.30;99.90
13798;DHT22;6970;51.340;3.240;2023-02-28T10:36:21;3.30;99.90
13798;DHT22;6970;51.340;3.240;2023-02-28T10:38:48;3.30;99.90
13798;DHT22;6970;51.340;3.240;2023-02-28T10:44:22;3.30;99.90
13798;DHT22;6970;51.340;3.240;2023-02-28T10:46:50;3.40;99.90
13798;DHT22;6970;51.340;3.240;2023-02-28T10:49:22;3.40;99.90
13798;DHT22;6970;51.340;3.240;2023-02-28T10:51:56;3.50;99.90
13798;DHT22;6970;51.340;3.240;2023-02-28T10:54:33;3.50;99.90
13798;DHT22;6970;51.340;3.240;2023-02-28T10:59:44;3.60;99.90
13798;DHT22;6970;51.340;3.240;2023-02-28T11:02:33;3.60;99.90
13798;DHT22;6970;51.340;3.240;2023-02-28T11:05:01;3.60;99.90
13798;DHT22;6970;51.340;3.240;2023-02-28T11:07:28;3.70;99.90
13798;DHT22;6970;51.340;3.240;2023-02-28T11:10:19;3.80;99.90
13798;DHT22;6970;51.340;3.240;2023-02-28T11:12:48;3.90;99.90
13798;DHT22;6970;51.340;3.240;2023-02-28T11:17:54;4.10;99.90
13798;DHT22;6970;51.340;3.240;2023-02-28T11:20:25;4.20;99.90
13798;DHT22;6970;51.340;3.240;2023-02-28T11:22:53;4.30;99.90
13798;DHT22;6970;51.340;3.240;2023-02-28T11:28:30;4.30;99.90
13798;DHT22;6970;51.340;3.240;2023-02-28T11:33:49;4.50;99.90
13798;DHT22;6970;51.340;3.240;2023-02-28T11:36:27;4.60;99.90
13798;DHT22;6970;51.340;3.240;2023-02-28T11:38:56;4.70;99.90
13798;DHT22;6970;51.340;3.240;2023-02-28T11:47:28;5.10;99.90
13798;DHT22;6970;51.340;3.240;2023-02-28T11:50:16;5.30;99.90
13798;DHT22;6970;51.340;3.240;2023-02-28T11:52:55;5.40;99.90
13798;DHT22;6970;51.340;3.240;2023-02-28T11:55:32;5.50;99.90
13798;DHT22;6970;51.340;3.240;2023-02-28T12:11:32;6.10;99.90
13798;DHT22;6970;51.340;3.240;2023-02-28T12:26:34;6.50;99.90
13798;DHT22;6970;51.340;3.240;2023-02-28T12:28:46;6.80;99.90
13798;DHT22;6970;51.340;3.240;2023-02-28T12:31:25;7.00;99.90
13798;DHT22;6970;51.340;3.240;2023-02-28T12:34:00;7.20;99.90
13798;DHT22;6970;51.340;3.240;2023-02-28T12:36:29;7.30;99.90
13798;DHT22;6970;51.340;3.240;2023-02-28T12:38:58;7.50;99.90
13798;DHT22;6970;51.340;3.240;2023-02-28T12:44:40;8.10;99.90
13798;DHT22;6970;51.340;3.240;2023-02-28T12:47:13;8.60;99.90
13798;DHT22;6970;51.340;3.240;2023-02-28T12:50:11;9.10;99.40
13798;DHT22;6970;51.340;3.240;2023-02-28T12:53:02;9.50;97.80
13798;DHT22;6970;51.340;3.240;2023-02-28T12:55:50;9.80;96.30
13798;DHT22;6970;51.340;3.240;2023-02-28T12:58:36;9.90;95.20
13798;DHT22;6970;51.340;3.240;2023-02-28T13:09:24;9.10;94.10
13798;DHT22;6970;51.340;3.240;2023-02-28T13:11:54;9.10;94.20
13798;DHT22;6970;51.340;3.240;2023-02-28T13:19:42;9.20;93.50
13798;DHT22;6970;51.340;3.240;2023-02-28T13:24:50;9.50;93.60
13798;DHT22;6970;51.340;3.240;2023-02-28T13:27:22;9.70;93.70
13798;DHT22;6970;51.340;3.240;2023-02-28T13:29:53;9.80;92.50
13798;DHT22;6970;51.340;3.240;2023-02-28T13:32:28;9.90;92.80
13798;DHT22;6970;51.340;3.240;2023-02-28T13:39:54;10.00;91.20
13798;DHT22;6970;51.340;3.240;2023-02-28T13:46:15;9.80;91.20
13798;DHT22;6970;51.340;3.240;2023-02-28T13:48:20;9.80;90.80
13798;DHT22;6970;51.340;3.240;2023-02-28T13:50:52;9.70;90.80
13798;DHT22;6970;51.340;3.240;2023-02-28T13:53:43;9.80;91.10
13798;DHT22;6970;51.340;3.240;2023-02-28T13:56:27;9.90;91.00
13798;DHT22;6970;51.340;3.240;2023-02-28T13:59:38;9.80;90.70
13798;DHT22;6970;51.340;3.240;2023-02-28T14:05:14;9.90;91.20
13798;DHT22;6970;51.340;3.240;2023-02-28T14:07:51;9.80;91.20
13798;DHT22;6970;51.340;3.240;2023-02-28T14:10:26;9.80;91.00
13798;DHT22;6970;51.340;3.240;2023-02-28T14:12:58;9.80;91.00
13798;DHT22;6970;51.340;3.240;2023-02-28T14:17:56;9.90;90.70
13798;DHT22;6970;51.340;3.240;2023-02-28T14:20:29;9.80;90.60
13798;DHT22;6970;51.340;3.240;2023-02-28T14:23:19;9.80;91.00
13798;DHT22;6970;51.340;3.240;2023-02-28T14:31:15;10.00;90.30
13798;DHT22;6970;51.340;3.240;2023-02-28T14:36:30;10.00;90.10
13798;DHT22;6970;51.340;3.240;2023-02-28T14:39:04;9.90;89.40
13798;DHT22;6970;51.340;3.240;2023-02-28T14:41:35;10.00;89.40
13798;DHT22;6970;51.340;3.240;2023-02-28T14:46:42;9.90;86.50
13798;DHT22;6970;51.340;3.240;2023-02-28T14:49:23;9.90;87.10
13798;DHT22;6970;51.340;3.240;2023-02-28T14:54:55;9.80;85.20
13798;DHT22;6970;51.340;3.240;2023-02-28T14:57:29;9.80;85.80
13798;DHT22;6970;51.340;3.240;2023-02-28T15:00:04;9.70;83.40
13798;DHT22;6970;51.340;3.240;2023-02-28T15:02:38;9.60;82.30
13798;DHT22;6970;51.340;3.240;2023-02-28T15:07:45;9.40;82.00
13798;DHT22;6970;51.340;3.240;2023-02-28T15:10:25;9.40;81.40
13798;DHT22;6970;51.340;3.240;2023-02-28T15:12:58;9.40;81.00
13798;DHT22;6970;51.340;3.240;2023-02-28T15:15:41;9.40;80.50
13798;DHT22;6970;51.340;3.240;2023-02-28T15:20:56;9.40;81.20
13798;DHT22;6970;51.340;3.240;2023-02-28T15:23:24;9.40;81.10
13798;DHT22;6970;51.340;3.240;2023-02-28T15:25:52;9.20;78.20
13798;DHT22;6970;51.340;3.240;2023-02-28T15:28:22;9.00;79.60
13798;DHT22;6970;51.340;3.240;2023-02-28T15:30:55;8.90;79.70
13798;DHT22;6970;51.340;3.240;2023-02-28T15:33:28;8.90;80.70
13798;DHT22;6970;51.340;3.240;2023-02-28T15:36:25;8.80;81.50
13798;DHT22;6970;51.340;3.240;2023-02-28T15:38:55;8.80;82.60
13798;DHT22;6970;51.340;3.240;2023-02-28T15:41:38;8.90;81.10
13798;DHT22;6970;51.340;3.240;2023-02-28T15:44:26;8.80;78.10
13798;DHT22;6970;51.340;3.240;2023-02-28T15:49:25;8.60;78.30
13798;DHT22;6970;51.340;3.240;2023-02-28T15:51:56;8.50;78.00
13798;DHT22;6970;51.340;3.240;2023-02-28T15:54:28;8.40;78.70
13798;DHT22;6970;51.340;3.240;2023-02-28T15:56:57;8.30;78.20
13798;DHT22;6970;51.340;3.240;2023-02-28T15:59:29;8.20;77.40
13798;DHT22;6970;51.340;3.240;2023-02-28T16:02:16;8.10;77.60
13798;DHT22;6970;51.340;3.240;2023-02-28T16:07:28;8.00;80.20
13798;DHT22;6970;51.340;3.240;2023-02-28T16:09:55;8.00;80.60
13798;DHT22;6970;51.340;3.240;2023-02-28T16:12:27;8.00;80.30
13798;DHT22;6970;51.340;3.240;2023-02-28T16:14:57;7.90;79.90
13798;DHT22;6970;51.340;3.240;2023-02-28T16:17:27;7.80;80.40
13798;DHT22;6970;51.340;3.240;2023-02-28T16:19:55;7.80;81.40
13798;DHT22;6970;51.340;3.240;2023-02-28T16:22:22;7.80;80.70
13798;DHT22;6970;51.340;3.240;2023-02-28T16:24:49;7.70;80.00
13798;DHT22;6970;51.340;3.240;2023-02-28T16:27:21;7.70;80.10
13798;DHT22;6970;51.340;3.240;2023-02-28T16:29:49;7.60;79.70
13798;DHT22;6970;51.340;3.240;2023-02-28T16:32:16;7.50;80.20
13798;DHT22;6970;51.340;3.240;2023-02-28T16:34:43;7.50;80.70
13798;DHT22;6970;51.340;3.240;2023-02-28T16:37:16;7.50;82.20
13798;DHT22;6970;51.340;3.240;2023-02-28T16:39:44;7.40;83.10
13798;DHT22;6970;51.340;3.240;2023-02-28T16:42:24;7.40;83.10
13798;DHT22;6970;51.340;3.240;2023-02-28T16:44:53;7.30;82.60
13798;DHT22;6970;51.340;3.240;2023-02-28T16:47:21;7.20;82.40
13798;DHT22;6970;51.340;3.240;2023-02-28T16:49:48;7.20;82.20
13798;DHT22;6970;51.340;3.240;2023-02-28T16:52:15;7.00;81.90
13798;DHT22;6970;51.340;3.240;2023-02-28T16:54:42;7.00;81.60
13798;DHT22;6970;51.340;3.240;2023-02-28T16:57:21;6.90;82.00
13798;DHT22;6970;51.340;3.240;2023-02-28T16:59:50;6.90;82.40
13798;DHT22;6970;51.340;3.240;2023-02-28T17:02:19;6.80;82.10
13798;DHT22;6970;51.340;3.240;2023-02-28T17:04:47;6.80;82.20
13798;DHT22;6970;51.340;3.240;2023-02-28T17:07:16;6.70;82.30
13798;DHT22;6970;51.340;3.240;2023-02-28T17:09:44;6.60;82.70
13798;DHT22;6970;51.340;3.240;2023-02-28T17:12:12;6.50;83.00
13798;DHT22;6970;51.340;3.240;2023-02-28T17:14:39;6.50;83.50
13798;DHT22;6970;51.340;3.240;2023-02-28T17:17:07;6.40;84.60
13798;DHT22;6970;51.340;3.240;2023-02-28T17:19:34;6.40;84.10
13798;DHT22;6970;51.340;3.240;2023-02-28T17:22:03;6.30;84.00
13798;DHT22;6970;51.340;3.240;2023-02-28T17:24:31;6.20;84.40
13798;DHT22;6970;51.340;3.240;2023-02-28T17:26:58;6.10;84.60
13798;DHT22;6970;51.340;3.240;2023-02-28T17:29:25;6.00;84.90
13798;DHT22;6970;51.340;3.240;2023-02-28T17:31:54;5.90;85.10
13798;DHT22;6970;51.340;3.240;2023-02-28T17:34:26;5.90;85.40
13798;DHT22;6970;51.340;3.240;2023-02-28T17:36:53;5.80;85.40
13798;DHT22;6970;51.340;3.240;2023-02-28T17:39:20;5.80;85.40
13798;DHT22;6970;51.340;3.240;2023-02-28T17:41:55;5.70;85.40
13798;DHT22;6970;51.340;3.240;2023-02-28T17:44:24;5.60;85.60
13798;DHT22;6970;51.340;3.240;2023-02-28T17:46:53;5.60;85.90
13798;DHT22;6970;51.340;3.240;2023-02-28T17:49:21;5.50;86.20
13798;DHT22;6970;51.340;3.240;2023-02-28T17:51:49;5.50;86.40
13798;DHT22;6970;51.340;3.240;2023-02-28T17:54:18;5.50;86.40
13798;DHT22;6970;51.340;3.240;2023-02-28T17:56:45;5.40;86.50
13798;DHT22;6970;51.340;3.240;2023-02-28T17:59:13;5.40;86.80
13798;DHT22;6970;51.340;3.240;2023-02-28T18:01:40;5.30;87.10
13798;DHT22;6970;51.340;3.240;2023-02-28T18:04:07;5.30;87.40
13798;DHT22;6970;51.340;3.240;2023-02-28T18:06:37;5.30;87.70
13798;DHT22;6970;51.340;3.240;2023-02-28T18:09:19;5.20;87.90
13798;DHT22;6970;51.340;3.240;2023-02-28T18:11:53;5.20;88.20
13798;DHT22;6970;51.340;3.240;2023-02-28T18:14:23;5.20;88.40
13798;DHT22;6970;51.340;3.240;2023-02-28T18:16:53;5.20;88.70
13798;DHT22;6970;51.340;3.240;2023-02-28T18:19:20;5.10;89.10
13798;DHT22;6970;51.340;3.240;2023-02-28T18:21:49;5.10;89.40
13798;DHT22;6970;51.340;3.240;2023-02-28T18:24:19;5.10;89.60
13798;DHT22;6970;51.340;3.240;2023-02-28T18:26:46;5.10;89.80
13798;DHT22;6970;51.340;3.240;2023-02-28T18:29:22;5.10;89.80
13798;DHT22;6970;51.340;3.240;2023-02-28T18:31:50;5.00;89.80
13798;DHT22;6970;51.340;3.240;2023-02-28T18:34:19;5.00;89.90
13798;DHT22;6970;51.340;3.240;2023-02-28T18:36:48;5.00;89.90
13798;DHT22;6970;51.340;3.240;2023-02-28T18:39:17;4.90;90.00
13798;DHT22;6970;51.340;3.240;2023-02-28T18:41:44;4.90;90.00
13798;DHT22;6970;51.340;3.240;2023-02-28T18:44:11;4.90;90.00
13798;DHT22;6970;51.340;3.240;2023-02-28T18:46:45;4.90;90.10